FW0460 Weather Reports


Display with metric or nautical units.
time (UTC)temp
F
wind
direction
speed
MPH
gust
MPH
rain 1hr
in
rain 24hr
in
rain mn
in
humidity
%
barometer
mb
20181114170533 47 263 1.0 4.0 0.00 0.00 0.00 74 1026.2
20181114165540 48 0.0 0.0 0.00 0.00 0.00 73 1026.2
20181114164518 48 294 0.0 2.0 0.00 0.00 0.00 72 1026.2
20181114163525 49 0.0 0.0 0.00 0.00 0.00 72 1026.2
20181114162531 50 0.0 0.0 0.00 0.00 0.00 71 1026.1
20181114161537 51 254 0.0 4.0 0.00 0.00 0.00 68 1025.9
20181114160543 51 280 0.0 2.0 0.00 0.00 0.00 67 1025.9
20181114155521 52 267 0.0 2.0 0.00 0.00 0.00 66 1025.9
20181114154528 53 282 0.0 2.0 0.00 0.00 0.00 66 1025.9
20181114153534 53 290 0.0 2.0 0.00 0.00 0.00 64 1025.9
20181114152540 54 296 0.0 2.0 0.00 0.00 0.00 62 1025.8
20181114151518 55 281 1.0 4.0 0.00 0.00 0.00 61 1025.9
20181114150525 56 285 1.0 4.0 0.00 0.00 0.00 58 1025.9
20181114145530 57 292 1.0 4.0 0.00 0.00 0.00 56 1025.9
20181114144537 58 282 1.0 4.0 0.00 0.00 0.00 52 1025.8
20181114143543 58 280 2.0 10.0 0.00 0.00 0.00 52 1025.8
20181114142521 59 247 2.0 7.0 0.00 0.00 0.00 51 1025.7
20181114141528 59 291 3.0 7.0 0.00 0.00 0.00 50 1025.8
20181114140534 59 276 2.0 12.0 0.00 0.00 0.00 51 1025.9
20181114135539 59 285 3.0 10.0 0.00 0.00 0.00 51 1025.8
20181114134519 59 287 3.0 10.0 0.00 0.00 0.00 53 1026.0
20181114133525 59 270 2.0 10.0 0.00 0.00 0.00 54 1026.1
20181114132531 60 269 1.0 7.0 0.00 0.00 0.00 52 1026.0
20181114131537 60 291 1.0 7.0 0.00 0.00 0.00 54 1026.0
20181114130542 60 310 1.0 4.0 0.00 0.00 0.00 52 1026.0
20181114125521 60 328 1.0 10.0 0.00 0.00 0.00 56 1026.0
20181114124528 60 215 0.0 2.0 0.00 0.00 0.00 59 1026.0
20181114123533 60 211 1.0 4.0 0.00 0.00 0.00 59 1026.3
20181114122539 59 190 1.0 4.0 0.00 0.00 0.00 60 1026.2
20181114121518 59 246 0.0 2.0 0.00 0.00 0.00 60 1026.3
20181114120525 59 235 1.0 4.0 0.00 0.00 0.00 63 1026.4
20181114115530 59 289 0.0 2.0 0.00 0.00 0.00 61 1026.8
20181114114536 59 210 0.0 2.0 0.00 0.00 0.00 62 1026.9
20181114113543 58 294 0.0 4.0 0.00 0.00 0.00 64 1027.0
20181114112521 58 281 0.0 2.0 0.00 0.00 0.00 65 1027.0
20181114111527 58 295 0.0 2.0 0.00 0.00 0.00 67 1027.2
20181114110534 57 270 0.0 2.0 0.00 0.00 0.00 66 1027.2
20181114105539 56 298 1.0 4.0 0.00 0.00 0.00 69 1027.3
20181114104518 55 261 2.0 7.0 0.00 0.00 0.00 71 1027.3
20181114103525 55 271 0.0 2.0 0.00 0.00 0.00 73 1027.4
20181114102531 54 258 2.0 7.0 0.00 0.00 0.00 75 1027.4
20181114101536 54 277 0.0 4.0 0.00 0.00 0.00 75 1027.7
20181114100543 53 284 0.0 2.0 0.00 0.00 0.00 76 1027.7
20181114095521 53 245 0.0 2.0 0.00 0.00 0.00 79 1027.8
20181114094528 53 286 0.0 2.0 0.00 0.00 0.00 78 1027.8
20181114093533 52 273 1.0 4.0 0.00 0.00 0.00 80 1028.0
20181114092539 52 294 1.0 4.0 0.00 0.00 0.00 80 1028.0
20181114091518 52 280 0.0 2.0 0.00 0.00 0.00 80 1028.0
20181114090524 52 296 1.0 4.0 0.00 0.00 0.00 80 1027.9
20181114085530 51 317 0.0 2.0 0.00 0.00 0.00 82 1027.9
20181114084536 51 283 1.0 4.0 0.00 0.00 0.00 83 1027.9
20181114083543 50 302 2.0 7.0 0.00 0.00 0.00 81 1027.8
20181114082522 49 299 3.0 10.0 0.00 0.00 0.00 83 1028.0
20181114081527 49 288 3.0 10.0 0.00 0.00 0.00 84 1027.8
20181114080533 49 294 1.0 4.0 0.00 0.00 0.00 86 1027.8
20181114075540 48 309 2.0 7.0 0.00 0.00 0.00 86 1027.7
20181114074518 48 328 1.0 4.0 0.00 0.00 0.00 86 1027.8
20181114073524 48 302 1.0 4.0 0.00 0.00 0.00 87 1027.5
20181114072530 48 334 3.0 7.0 0.00 0.00 0.00 87 1027.6
20181114071536 47 331 0.0 2.0 0.00 0.00 0.00 88 1027.4
20181114070543 47 296 1.0 4.0 0.00 0.00 0.00 88 1027.3
20181114065521 46 288 2.0 4.0 0.00 0.00 0.00 88 1027.3
20181114064527 45 276 2.0 10.0 0.00 0.00 0.00 89 1027.3
20181114063533 45 294 2.0 7.0 0.00 0.00 0.00 90 1027.0
20181114062539 45 291 2.0 7.0 0.00 0.00 0.00 90 1026.9
20181114061518 44 294 2.0 7.0 0.00 0.00 0.00 90 1026.7
20181114060525 44 288 2.0 4.0 0.00 0.00 0.00 90 1026.7
20181114055530 44 294 1.0 7.0 0.00 0.00 0.00 90 1026.6
20181114054536 44 304 0.0 4.0 0.00 0.00 0.00 90 1026.5
20181114053542 44 313 1.0 4.0 0.00 0.00 0.00 91 1026.5
20181114052521 44 293 0.0 4.0 0.00 0.00 0.00 92 1026.4
20181114051527 44 282 0.0 2.0 0.00 0.00 0.00 92 1026.3
20181114050533 44 300 2.0 4.0 0.00 0.00 0.00 91 1026.3
20181114045539 44 300 2.0 7.0 0.00 0.00 0.00 91 1026.3
20181114044518 44 293 2.0 7.0 0.00 0.00 0.00 91 1026.1
20181114043524 43 261 3.0 7.0 0.00 0.00 0.00 91 1025.9
20181114042530 43 279 2.0 7.0 0.00 0.00 0.00 92 1025.9
20181114041536 43 280 0.0 2.0 0.00 0.00 0.00 92 1025.8
20181114040542 44 253 0.0 2.0 0.00 0.00 0.00 92 1025.6
20181114035523 44 255 0.0 2.0 0.00 0.00 0.00 92 1025.8
20181114034527 45 272 0.0 2.0 0.00 0.00 0.00 92 1025.6
20181114033534 45 279 0.0 2.0 0.00 0.00 0.00 92 1025.5
20181114032539 45 274 0.0 2.0 0.00 0.00 0.00 92 1025.6
20181114031518 45 286 1.0 4.0 0.00 0.00 0.00 92 1025.6
20181114030524 45 291 1.0 4.0 0.00 0.00 0.00 92 1025.4
20181114025530 46 292 0.0 4.0 0.00 0.00 0.00 91 1025.4
20181114024537 46 295 1.0 4.0 0.00 0.00 0.00 91
20181114023542 46 279 2.0 4.0 0.00 0.00 0.00 90
20181114022521 46 273 1.0 4.0 0.00 0.00 0.00 91
20181114021528 46 281 1.0 4.0 0.00 0.00 0.00 91
20181114020533 46 295 0.0 2.0 0.00 0.00 0.00 91
20181114015539 46 267 1.0 4.0 0.00 0.00 0.00 90
20181114014518 46 255 2.0 4.0 0.00 0.00 0.00 90
20181114013524 46 263 2.0 10.0 0.00 0.00 0.00 89
20181114012530 46 267 2.0 4.0 0.00 0.00 0.00 89
20181114011536 45 276 1.0 4.0 0.00 0.00 0.00 89
20181114010542 45 269 0.0 2.0 0.00 0.00 0.00 89
20181114005521 45 254 1.0 4.0 0.00 0.00 0.00 89 1025.6
20181114004527 45 264 0.0 4.0 0.00 0.00 0.00 89 1025.4
20181114003533 46 273 0.0 2.0 0.00 0.00 0.00 88 1025.4
20181114002539 46 274 0.0 2.0 0.00 0.00 0.00 87 1025.3
20181114001519 47 283 0.0 2.0 0.00 0.00 0.00 87 1025.4
20181114000526 47 264 0.0 7.0 0.00 0.00 0.00 86 1025.3
20181113235530 47 263 1.0 2.0 0.00 0.00 0.00 86 1025.3
20181113234536 48 285 0.0 2.0 0.00 0.00 0.00 85 1025.0
20181113233542 48 278 0.0 2.0 0.00 0.00 0.00 85 1025.1
20181113232521 49 278 0.0 4.0 0.00 0.00 0.00 84 1025.1
20181113231527 49 319 0.0 4.0 0.00 0.00 0.00 84 1025.2
20181113230533 49 252 1.0 4.0 0.00 0.00 0.00 84 1025.3
20181113225539 49 308 3.0 10.0 0.00 0.00 0.00 84 1025.3
20181113224518 49 282 2.0 7.0 0.00 0.00 0.00 83 1025.3
20181113223524 49 307 0.0 4.0 0.00 0.00 0.00 83 1025.3
20181113222530 49 291 0.0 2.0 0.00 0.00 0.00 82 1025.2
20181113221536 49 291 0.0 2.0 0.00 0.00 0.00 82 1025.1
20181113220542 50 0.0 0.0 0.00 0.00 0.00 80 1025.0
20181113215521 50 282 0.0 2.0 0.00 0.00 0.00 80 1024.9
20181113214527 51 0.0 0.0 0.00 0.00 0.00 80 1024.7
20181113213533 51 0.0 0.0 0.00 0.00 0.00 80 1024.6
20181113212539 51 0.0 0.0 0.00 0.00 0.00 79 1024.7
20181113211518 52 0.0 0.0 0.00 0.00 0.00 79 1024.7
20181113210524 53 0.0 0.0 0.00 0.00 0.00 78 1024.7
20181113205530 53 0.0 0.0 0.00 0.00 0.00 76 1024.6
20181113204536 53 0.0 0.0 0.00 0.00 0.00 76 1024.6
20181113203542 53 0.0 0.0 0.00 0.00 0.00 76 1024.8
20181113202521 53 0.0 0.0 0.00 0.00 0.00 74 1024.6
20181113201527 53 0.0 0.0 0.00 0.00 0.00 74 1024.6
20181113200533 53 0.0 0.0 0.00 0.00 0.00 74 1024.6
20181113195539 53 0.0 0.0 0.00 0.00 0.00 74 1024.6
20181113194518 53 0.0 0.0 0.00 0.00 0.00 74 1024.5
20181113193524 53 0.0 0.0 0.00 0.00 0.00 74 1024.4
20181113192530 53 0.0 0.0 0.00 0.00 0.00 74 1024.2
20181113191536 53 0.0 0.0 0.00 0.00 0.00 74 1024.2
20181113190542 53 0.0 0.0 0.00 0.00 0.00 74 1024.2
20181113185521 53 0.0 0.0 0.00 0.00 0.00 74 1024.2
20181113184527 53 0.0 0.0 0.00 0.00 0.00 73 1024.2
20181113183533 53 0.0 0.0 0.00 0.00 0.00 74 1024.2
20181113182539 53 0.0 0.0 0.00 0.00 0.00 73 1024.2
20181113181518 53 0.0 0.0 0.00 0.00 0.00 73 1024.0
20181113180524 53 0.0 0.0 0.00 0.00 0.00 73 1024.2
20181113175530 53 0.0 0.0 0.00 0.00 0.00 73 1024.0
20181113174536 53 0.0 0.0 0.00 0.00 0.00 73 1023.9
20181113173542 54 0.0 0.0 0.00 0.00 0.00 74 1024.0
20181113172521 54 0.0 0.0 0.00 0.00 0.00 73 1024.0
20181113171527 54 0.0 0.0 0.00 0.00 0.00 73 1023.9